createdAt,value
2023-01-02T00:02:13.027Z,50.80
2023-01-02T00:04:42.073Z,50.35
2023-01-02T00:07:10.926Z,50.00
2023-01-02T00:09:39.864Z,48.35
2023-01-02T00:12:08.708Z,49.60
2023-01-02T00:14:37.525Z,48.58
2023-01-02T00:17:06.344Z,49.70
2023-01-02T00:19:35.105Z,48.10
2023-01-02T00:22:03.902Z,47.00
2023-01-02T00:24:32.780Z,48.22
2023-01-02T00:27:01.640Z,46.00
2023-01-02T00:29:30.473Z,48.45
2023-01-02T00:32:00.688Z,47.67
2023-01-02T00:34:29.438Z,46.42
2023-01-02T00:36:58.314Z,46.20
2023-01-02T00:39:27.114Z,46.83
2023-01-02T00:41:56.215Z,48.97
2023-01-02T00:44:25.029Z,56.88
2023-01-02T00:46:53.777Z,54.95
2023-01-02T00:49:22.601Z,56.40
2023-01-02T00:51:51.496Z,53.28
2023-01-02T00:54:20.292Z,54.85
2023-01-02T00:56:49.127Z,55.00
2023-01-02T00:59:17.812Z,51.72
2023-01-02T01:01:46.777Z,51.85
2023-01-02T01:04:16.345Z,53.97
2023-01-02T01:06:45.198Z,52.63
2023-01-02T01:09:14.720Z,52.15
2023-01-02T01:11:43.574Z,48.78
2023-01-02T01:14:12.485Z,52.00
2023-01-02T01:16:41.534Z,48.72
2023-01-02T01:19:10.437Z,49.00
2023-01-02T01:21:39.221Z,48.50
2023-01-02T01:24:08.444Z,47.90
2023-01-02T01:26:37.260Z,49.28
2023-01-02T01:29:06.128Z,54.20
2023-01-02T01:31:34.994Z,50.58
2023-01-02T01:34:03.879Z,45.88
2023-01-02T01:36:32.892Z,46.65
2023-01-02T01:39:01.706Z,47.10
2023-01-02T01:41:30.597Z,46.25
2023-01-02T01:44:01.484Z,45.33
2023-01-02T01:46:38.423Z,45.80
2023-01-02T01:49:13.242Z,44.50
2023-01-02T01:51:53.279Z,47.63
2023-01-02T01:54:28.836Z,44.72
2023-01-02T01:57:02.389Z,44.05
2023-01-02T01:59:31.808Z,44.08
2023-01-02T02:02:00.853Z,47.92
2023-01-02T02:04:30.397Z,44.35
2023-01-02T02:06:59.163Z,44.67
2023-01-02T02:09:38.872Z,44.25
2023-01-02T02:12:09.540Z,41.95
2023-01-02T02:14:38.432Z,41.22
2023-01-02T02:17:25.795Z,43.38
2023-01-02T02:20:08.849Z,44.33
2023-01-02T02:22:39.557Z,41.17
2023-01-02T02:25:24.055Z,40.92
2023-01-02T02:28:12.962Z,40.95
2023-01-02T02:30:53.964Z,39.13
2023-01-02T02:33:33.278Z,39.22
2023-01-02T02:36:18.511Z,39.45
2023-01-02T02:39:26.756Z,38.90
2023-01-02T02:42:08.516Z,36.83
2023-01-02T02:45:00.773Z,36.85
2023-01-02T02:47:45.785Z,38.25
2023-01-02T02:50:19.527Z,38.72
2023-01-02T02:53:02.650Z,39.05
2023-01-02T02:55:40.325Z,35.58
2023-01-02T02:58:10.231Z,34.95
2023-01-02T03:00:38.988Z,36.47
2023-01-02T03:03:27.319Z,34.15
2023-01-02T03:06:17.195Z,35.53
2023-01-02T03:09:20.281Z,35.33
2023-01-02T03:12:01.959Z,33.28
2023-01-02T03:14:59.986Z,35.00
2023-01-02T03:17:48.498Z,33.75
2023-01-02T03:20:23.806Z,34.22
2023-01-02T03:22:59.626Z,31.83
2023-01-02T03:25:28.804Z,32.20
2023-01-02T03:27:59.630Z,31.65
2023-01-02T03:30:30.519Z,32.45
2023-01-02T03:33:05.237Z,33.78
2023-01-02T03:35:42.291Z,33.92
2023-01-02T03:38:21.440Z,35.30
2023-01-02T03:40:57.217Z,34.88
2023-01-02T03:43:31.782Z,36.15
2023-01-02T03:46:18.906Z,35.20
2023-01-02T03:49:03.594Z,36.00
2023-01-02T03:51:32.487Z,34.20
2023-01-02T03:54:02.515Z,35.17
2023-01-02T03:56:51.420Z,36.60
2023-01-02T03:59:27.401Z,35.70
2023-01-02T04:02:03.917Z,36.40
2023-01-02T04:04:54.033Z,35.25
2023-01-02T04:07:31.788Z,34.22
2023-01-02T04:10:01.957Z,34.95
2023-01-02T04:12:32.970Z,32.63
2023-01-02T04:15:06.617Z,30.23
2023-01-02T04:17:42.621Z,29.25
2023-01-02T04:20:16.270Z,32.10
2023-01-02T04:22:53.233Z,30.88
2023-01-02T04:25:25.294Z,31.83
2023-01-02T04:28:02.158Z,31.15
2023-01-02T04:30:33.217Z,29.63
2023-01-02T04:33:08.290Z,30.02
2023-01-02T04:35:37.461Z,29.67
2023-01-02T04:38:11.775Z,29.63
2023-01-02T04:40:40.882Z,30.00
2023-01-02T04:43:17.796Z,29.00
2023-01-02T04:45:48.647Z,30.02
2023-01-02T04:48:18.387Z,27.60
2023-01-02T04:50:47.506Z,28.70
2023-01-02T04:53:16.632Z,27.85
2023-01-02T04:55:45.404Z,29.10
2023-01-02T04:58:14.240Z,27.55
2023-01-02T05:00:42.925Z,28.80
2023-01-02T05:03:11.756Z,28.10
2023-01-02T05:05:43.280Z,28.60
2023-01-02T05:08:16.089Z,27.95
2023-01-02T05:10:45.341Z,28.23
2023-01-02T05:13:14.099Z,27.15
2023-01-02T05:15:42.963Z,28.55
2023-01-02T05:18:11.867Z,28.30
2023-01-02T05:20:40.681Z,27.25
2023-01-02T05:23:32.536Z,26.25
2023-01-02T05:26:01.276Z,27.10
2023-01-02T05:28:35.111Z,27.23
2023-01-02T05:31:07.205Z,26.10
2023-01-02T05:33:36.157Z,25.70
2023-01-02T05:36:08.151Z,27.70
2023-01-02T05:38:38.477Z,24.42
2023-01-02T05:41:10.004Z,25.70
2023-01-02T05:43:39.911Z,24.60
2023-01-02T05:46:15.089Z,25.67
2023-01-02T05:48:44.404Z,25.10
2023-01-02T05:51:15.669Z,25.20
2023-01-02T05:53:45.239Z,26.92
2023-01-02T05:56:17.296Z,26.10
2023-01-02T05:58:48.237Z,26.48
2023-01-02T06:01:20.723Z,27.27
2023-01-02T06:03:51.102Z,28.55
2023-01-02T06:06:22.188Z,27.05
2023-01-02T06:08:51.109Z,26.27
2023-01-02T06:11:20.124Z,26.63
2023-01-02T06:13:48.981Z,25.50
2023-01-02T06:16:17.882Z,26.20
2023-01-02T06:18:46.918Z,25.65
2023-01-02T06:21:17.584Z,25.20
2023-01-02T06:23:46.816Z,26.20
2023-01-02T06:26:18.850Z,26.90
2023-01-02T06:28:50.923Z,24.35
2023-01-02T06:31:21.921Z,27.63
2023-01-02T06:34:00.889Z,27.88
2023-01-02T06:36:33.159Z,27.55
2023-01-02T06:39:02.259Z,26.33
2023-01-02T06:41:31.187Z,28.33
2023-01-02T06:43:59.998Z,26.35
2023-01-02T06:46:28.810Z,25.98
2023-01-02T06:48:57.679Z,25.17
2023-01-02T06:51:26.441Z,26.25
2023-01-02T06:53:55.150Z,25.83
2023-01-02T06:56:23.973Z,26.52
2023-01-02T06:58:52.755Z,25.13
2023-01-02T07:01:23.997Z,25.77
2023-01-02T07:03:52.962Z,25.25
2023-01-02T07:06:23.215Z,26.10
2023-01-02T07:08:54.560Z,24.95
2023-01-02T07:11:26.073Z,23.40
2023-01-02T07:13:56.270Z,24.77
2023-01-02T07:16:26.316Z,25.27
2023-01-02T07:18:55.486Z,25.20
2023-01-02T07:21:24.688Z,25.13
2023-01-02T07:23:53.561Z,23.23
2023-01-02T07:26:22.720Z,22.42
2023-01-02T07:28:51.623Z,20.83
2023-01-02T07:31:22.214Z,22.38
2023-01-02T07:33:51.345Z,21.58
2023-01-02T07:36:23.359Z,20.80
2023-01-02T07:38:54.259Z,21.88
2023-01-02T07:41:25.516Z,20.42
2023-01-02T07:43:57.327Z,22.05
2023-01-02T07:46:26.934Z,21.52
2023-01-02T07:48:55.707Z,20.63
2023-01-02T07:51:27.248Z,20.85
2023-01-02T07:53:56.980Z,21.00
2023-01-02T07:56:26.648Z,18.60
2023-01-02T07:58:55.535Z,16.92
2023-01-02T08:01:24.400Z,17.98
2023-01-02T08:03:53.365Z,18.05
2023-01-02T08:06:22.193Z,17.90
2023-01-02T08:08:51.054Z,17.10
2023-01-02T08:11:22.255Z,17.08
2023-01-02T08:13:51.640Z,18.10
2023-01-02T08:16:23.288Z,17.35
2023-01-02T08:18:56.596Z,17.48
2023-01-02T08:21:27.199Z,16.75
2023-01-02T08:23:56.218Z,17.02
2023-01-02T08:26:25.863Z,17.95
2023-01-02T08:28:54.585Z,17.30
2023-01-02T08:31:24.128Z,17.02
2023-01-02T08:33:53.135Z,17.52
2023-01-02T08:36:21.909Z,17.98
2023-01-02T08:38:50.907Z,18.48
2023-01-02T08:41:38.073Z,18.42
2023-01-02T08:44:07.413Z,18.67
2023-01-02T08:46:42.664Z,21.67
2023-01-02T08:49:13.322Z,16.63
2023-01-02T08:51:42.333Z,16.52
2023-01-02T08:54:11.093Z,17.55
2023-01-02T08:56:39.894Z,20.13
2023-01-02T08:59:10.948Z,17.70
2023-01-02T09:01:40.969Z,19.75
2023-01-02T09:04:12.900Z,19.65
2023-01-02T09:06:43.045Z,17.33
2023-01-02T09:09:13.386Z,17.73
2023-01-02T09:11:47.529Z,17.30
2023-01-02T09:14:20.362Z,18.65
2023-01-02T09:19:18.233Z,20.25
2023-01-02T09:21:47.364Z,19.73
2023-01-02T09:24:16.252Z,19.38
2023-01-02T09:26:45.355Z,17.98
2023-01-02T09:29:15.934Z,17.88
2023-01-02T09:31:44.712Z,19.30
2023-01-02T09:34:14.575Z,19.00
2023-01-02T09:36:43.346Z,16.92
2023-01-02T09:39:13.729Z,18.63
2023-01-02T09:41:45.502Z,19.77
2023-01-02T09:44:40.268Z,20.50
2023-01-02T09:47:21.102Z,21.13
2023-01-02T09:49:54.387Z,19.13
2023-01-02T09:52:27.938Z,18.65
2023-01-02T09:54:56.869Z,17.98
2023-01-02T09:57:34.183Z,17.95
2023-01-02T10:00:10.837Z,18.65
2023-01-02T10:02:44.139Z,18.58
2023-01-02T10:05:28.798Z,19.10
2023-01-02T10:08:07.640Z,19.65
2023-01-02T10:10:57.608Z,20.48
2023-01-02T10:14:08.248Z,18.13
2023-01-02T10:16:26.530Z,19.40
2023-01-02T10:18:56.466Z,21.45
2023-01-02T10:21:43.336Z,22.27
2023-01-02T10:24:17.062Z,21.08
2023-01-02T10:26:53.889Z,21.75
2023-01-02T10:29:33.367Z,20.80
2023-01-02T10:32:22.340Z,21.48
2023-01-02T10:34:52.953Z,21.48
2023-01-02T10:37:22.019Z,25.13
2023-01-02T10:39:51.925Z,25.70
2023-01-02T10:42:21.625Z,25.17
2023-01-02T10:44:50.515Z,26.50
2023-01-02T10:47:21.906Z,26.60
2023-01-02T10:49:53.007Z,28.48
2023-01-02T10:52:42.859Z,27.88
2023-01-02T10:55:11.649Z,27.40
2023-01-02T10:57:52.361Z,28.30
2023-01-02T11:00:27.710Z,30.67
2023-01-02T11:03:01.643Z,30.95
2023-01-02T11:05:33.020Z,31.48
2023-01-02T11:08:13.669Z,35.08
2023-01-02T11:10:43.439Z,37.08
2023-01-02T11:13:15.948Z,33.85
2023-01-02T11:16:04.044Z,33.88
2023-01-02T11:18:35.289Z,31.88
2023-01-02T11:21:07.029Z,31.85
2023-01-02T11:23:42.264Z,28.73
2023-01-02T11:26:24.383Z,30.23
2023-01-02T11:28:55.397Z,27.05
2023-01-02T11:31:25.385Z,26.58
2023-01-02T11:34:08.330Z,28.80
2023-01-02T11:36:37.527Z,27.90
2023-01-02T11:39:26.084Z,28.00
2023-01-02T11:42:25.432Z,28.85
2023-01-02T11:45:10.936Z,27.60
2023-01-02T11:47:46.960Z,26.08
2023-01-02T11:50:28.754Z,27.70
2023-01-02T11:53:21.898Z,27.65
2023-01-02T11:56:11.824Z,27.77
2023-01-02T11:58:49.541Z,28.85
2023-01-02T12:01:30.163Z,30.42
2023-01-02T12:03:59.405Z,29.70
2023-01-02T12:06:40.569Z,29.67
2023-01-02T12:09:13.985Z,28.17
2023-01-02T12:12:06.336Z,27.23
2023-01-02T12:14:55.214Z,27.90
2023-01-02T12:17:30.460Z,26.90
2023-01-02T12:20:27.758Z,26.90
2023-01-02T12:23:08.577Z,26.15
2023-01-02T12:25:57.583Z,26.02
2023-01-02T12:29:02.097Z,27.50
2023-01-02T12:31:45.833Z,26.05
2023-01-02T12:34:34.746Z,28.02
2023-01-02T12:37:05.382Z,26.58
2023-01-02T12:40:13.355Z,27.00
2023-01-02T12:42:51.516Z,26.98
2023-01-02T12:45:32.916Z,26.02
2023-01-02T12:48:11.495Z,26.05
2023-01-02T12:51:06.363Z,25.15
2023-01-02T12:54:18.882Z,25.10
2023-01-02T12:56:54.290Z,25.40
2023-01-02T12:59:34.316Z,25.83
2023-01-02T13:02:12.921Z,24.45
2023-01-02T13:04:49.825Z,24.33
2023-01-02T13:07:28.606Z,24.75
2023-01-02T13:10:02.330Z,25.63
2023-01-02T13:12:34.220Z,23.90
2023-01-02T13:15:06.198Z,24.13
2023-01-02T13:18:10.542Z,24.10
2023-01-02T13:21:01.899Z,24.20
2023-01-02T13:23:37.193Z,23.58
2023-01-02T13:26:11.507Z,24.48
2023-01-02T13:28:44.058Z,24.65
2023-01-02T13:34:11.187Z,24.95
2023-01-02T13:36:45.850Z,26.73
2023-01-02T13:39:28.368Z,24.55
2023-01-02T13:42:19.780Z,25.10
2023-01-02T13:44:52.820Z,25.35
2023-01-02T13:50:14.570Z,23.70
2023-01-02T13:52:55.341Z,23.92
2023-01-02T13:55:32.462Z,25.13
2023-01-02T13:58:25.684Z,23.85
2023-01-02T14:00:58.275Z,24.25
2023-01-02T14:03:29.522Z,23.80
2023-01-02T14:06:04.818Z,24.92
2023-01-02T14:08:39.763Z,24.63
2023-01-02T14:11:28.554Z,23.95
2023-01-02T14:13:57.697Z,25.95
2023-01-02T14:16:28.362Z,23.73
2023-01-02T14:19:22.195Z,23.30
2023-01-02T14:22:04.092Z,23.10
2023-01-02T14:24:36.446Z,22.65
2023-01-02T14:27:18.004Z,21.90
2023-01-02T14:29:53.893Z,21.27
2023-01-02T14:32:43.943Z,20.80
2023-01-02T14:35:17.166Z,21.10
2023-01-02T14:37:55.857Z,22.13
2023-01-02T14:40:25.926Z,20.88
2023-01-02T14:43:22.227Z,21.13
2023-01-02T14:45:55.150Z,20.02
2023-01-02T14:51:08.076Z,20.88
2023-01-02T14:54:05.583Z,19.42
2023-01-02T14:56:38.781Z,20.27
2023-01-02T14:59:14.309Z,20.85
2023-01-02T15:01:46.453Z,21.83
2023-01-02T15:04:42.877Z,20.33
2023-01-02T15:07:29.273Z,20.23
2023-01-02T15:10:05.188Z,21.02
2023-01-02T15:13:03.382Z,20.10
2023-01-02T15:15:39.778Z,20.95
2023-01-02T15:18:17.431Z,21.75
2023-01-02T15:20:52.300Z,20.77
2023-01-02T15:23:24.540Z,21.10
2023-01-02T15:26:32.606Z,21.23
2023-01-02T15:28:43.226Z,20.85
2023-01-02T15:31:17.054Z,22.20
2023-01-02T15:33:54.961Z,22.60
2023-01-02T15:36:34.534Z,21.48
2023-01-02T15:39:21.007Z,21.30
2023-01-02T15:41:54.173Z,22.27
2023-01-02T15:44:50.860Z,22.23
2023-01-02T15:47:27.365Z,23.42
2023-01-02T15:49:58.421Z,22.23
2023-01-02T15:52:31.607Z,22.15
2023-01-02T15:55:01.496Z,22.92
2023-01-02T15:57:33.470Z,23.65
2023-01-02T16:00:02.461Z,22.60
2023-01-02T16:02:37.989Z,22.23
2023-01-02T16:05:13.974Z,22.83
2023-01-02T16:07:43.737Z,22.10
2023-01-02T16:10:21.628Z,21.90
2023-01-02T16:12:57.804Z,22.65
2023-01-02T16:15:31.144Z,23.27
2023-01-02T16:18:00.141Z,23.67
2023-01-02T16:20:30.496Z,23.15
2023-01-02T16:23:03.878Z,22.08
2023-01-02T16:25:46.022Z,23.98
2023-01-02T16:28:35.083Z,24.88
2023-01-02T16:31:16.574Z,24.88
2023-01-02T16:33:46.928Z,24.33
2023-01-02T16:36:17.613Z,24.48
2023-01-02T16:38:48.770Z,23.98
2023-01-02T16:41:45.592Z,24.40
2023-01-02T16:44:18.931Z,25.90
2023-01-02T16:46:50.432Z,23.17
2023-01-02T16:49:22.669Z,26.30
2023-01-02T16:51:54.787Z,25.00
2023-01-02T16:54:23.500Z,24.90
2023-01-02T16:56:53.144Z,25.85
2023-01-02T17:03:03.341Z,25.08
2023-01-02T17:05:35.177Z,26.58
2023-01-02T17:08:04.050Z,27.10
2023-01-02T17:10:32.966Z,25.85
2023-01-02T17:13:02.599Z,25.23
2023-01-02T17:15:33.402Z,25.55
2023-01-02T17:18:02.278Z,26.75
2023-01-02T17:20:31.532Z,24.80
2023-01-02T17:23:00.448Z,26.02
2023-01-02T17:25:29.297Z,25.48
2023-01-02T17:27:58.296Z,27.00
2023-01-02T17:30:27.340Z,26.10
2023-01-02T17:33:01.947Z,26.40
2023-01-02T17:35:34.225Z,26.55
2023-01-02T17:38:03.621Z,26.35
2023-01-02T17:40:32.435Z,27.15
2023-01-02T17:43:01.301Z,28.30
2023-01-02T17:45:30.272Z,28.73
2023-01-02T17:48:04.057Z,27.13
2023-01-02T17:50:36.621Z,29.50
2023-01-02T17:53:05.391Z,27.20
2023-01-02T17:55:34.111Z,28.58
2023-01-02T17:58:02.998Z,28.92
2023-01-02T18:00:31.780Z,29.08
2023-01-02T18:03:00.635Z,28.73
2023-01-02T18:05:29.395Z,27.58
2023-01-02T18:07:58.149Z,27.70
2023-01-02T18:10:32.653Z,28.88
2023-01-02T18:13:01.846Z,28.60
2023-01-02T18:15:31.110Z,29.25
2023-01-02T18:18:04.207Z,28.58
2023-01-02T18:23:01.766Z,28.35
2023-01-02T18:25:32.151Z,28.60
2023-01-02T18:28:06.506Z,29.27
2023-01-02T18:30:36.838Z,30.63
2023-01-02T18:33:15.831Z,31.48
2023-01-02T18:36:00.935Z,32.35
2023-01-02T18:38:40.503Z,32.58
2023-01-02T18:41:25.456Z,30.75
2023-01-02T18:44:05.779Z,30.27
2023-01-02T18:47:03.518Z,32.45
2023-01-02T18:49:30.725Z,32.15
2023-01-02T18:52:09.193Z,31.15
2023-01-02T18:54:41.306Z,31.38
2023-01-02T18:57:16.683Z,31.17
2023-01-02T18:59:47.963Z,32.20
2023-01-02T19:02:56.146Z,29.85
2023-01-02T19:05:29.063Z,29.40
2023-01-02T19:08:25.089Z,29.60
2023-01-02T19:10:56.531Z,29.50
2023-01-02T19:13:29.469Z,30.50
2023-01-02T19:16:03.449Z,30.60
2023-01-02T19:18:45.250Z,30.15
2023-01-02T19:21:21.922Z,29.08
2023-01-02T19:24:01.017Z,28.73
2023-01-02T19:26:50.572Z,28.60
2023-01-02T19:29:23.004Z,28.92
2023-01-02T19:32:27.672Z,29.08
2023-01-02T19:35:01.194Z,30.50
2023-01-02T19:37:39.896Z,30.15
2023-01-02T19:40:18.953Z,28.77
2023-01-02T19:42:50.702Z,28.52
2023-01-02T19:45:22.798Z,28.30
2023-01-02T19:47:52.351Z,28.25
2023-01-02T19:50:25.226Z,27.98
2023-01-02T19:52:54.364Z,28.23
2023-01-02T19:55:23.502Z,28.60
2023-01-02T19:57:52.291Z,27.95
2023-01-02T20:00:21.242Z,27.90
2023-01-02T20:02:52.621Z,27.27
2023-01-02T20:05:23.143Z,26.60
2023-01-02T20:07:53.894Z,27.90
2023-01-02T20:10:23.607Z,27.73
2023-01-02T20:12:52.743Z,26.58
2023-01-02T20:15:27.038Z,27.33
2023-01-02T20:17:56.090Z,27.02
2023-01-02T20:20:27.648Z,26.58
2023-01-02T20:22:56.853Z,27.60
2023-01-02T20:25:27.262Z,27.35
2023-01-02T20:27:57.292Z,27.58
2023-01-02T20:30:26.601Z,28.45
2023-01-02T20:32:56.297Z,28.02
2023-01-02T20:35:25.460Z,26.33
2023-01-02T20:37:54.300Z,27.27
2023-01-02T20:40:23.190Z,27.60
2023-01-02T20:42:52.084Z,27.73
2023-01-02T20:45:20.964Z,27.60
2023-01-02T20:47:49.695Z,27.27
2023-01-02T20:50:18.864Z,26.70
2023-01-02T20:52:50.937Z,26.60
2023-01-02T20:55:22.364Z,26.42
2023-01-02T20:57:51.709Z,26.13
2023-01-02T21:00:22.235Z,25.83
2023-01-02T21:02:51.195Z,26.75
2023-01-02T21:05:20.166Z,27.30
2023-01-02T21:07:48.986Z,27.05
2023-01-02T21:10:17.784Z,27.52
2023-01-02T21:13:06.119Z,28.27
2023-01-02T21:15:52.397Z,27.17
2023-01-02T21:18:23.786Z,26.88
2023-01-02T21:20:55.756Z,28.45
2023-01-02T21:23:25.948Z,28.27
2023-01-02T21:25:55.388Z,27.90
2023-01-02T21:28:25.499Z,28.48
2023-01-02T21:30:55.044Z,27.73
2023-01-02T21:33:25.311Z,28.48
2023-01-02T21:35:55.905Z,29.25
2023-01-02T21:38:26.167Z,27.80
2023-01-02T21:40:55.961Z,28.88
2023-01-02T21:43:25.145Z,28.27
2023-01-02T21:45:54.018Z,28.50
2023-01-02T21:48:22.826Z,29.70
2023-01-02T21:50:51.581Z,29.45
2023-01-02T21:53:20.385Z,30.60
2023-01-02T21:55:49.176Z,30.52
2023-01-02T21:58:18.005Z,31.05
2023-01-02T22:00:49.562Z,30.75
2023-01-02T22:03:18.484Z,30.85
2023-01-02T22:05:47.440Z,32.38
2023-01-02T22:08:16.287Z,32.05
2023-01-02T22:10:45.018Z,32.55
2023-01-02T22:13:14.527Z,33.20
2023-01-02T22:15:43.417Z,33.22
2023-01-02T22:18:12.467Z,32.50
2023-01-02T22:20:41.175Z,32.22
2023-01-02T22:23:10.109Z,31.05
2023-01-02T22:25:38.925Z,31.85
2023-01-02T22:28:07.768Z,30.75
2023-01-02T22:30:36.674Z,30.90
2023-01-02T22:33:05.681Z,31.67
2023-01-02T22:35:34.795Z,31.25
2023-01-02T22:38:03.628Z,32.10
2023-01-02T22:40:32.520Z,30.23
2023-01-02T22:43:03.311Z,30.10
2023-01-02T22:45:42.022Z,31.00
2023-01-02T22:48:20.830Z,31.08
2023-01-02T22:50:53.314Z,33.40
2023-01-02T22:53:29.569Z,32.63
2023-01-02T22:55:58.936Z,33.72
2023-01-02T22:58:27.913Z,32.38
2023-01-02T23:01:04.106Z,33.90
2023-01-02T23:03:40.221Z,33.67
2023-01-02T23:06:09.543Z,32.60
2023-01-02T23:08:39.280Z,32.35
2023-01-02T23:11:09.648Z,31.77
2023-01-02T23:13:39.923Z,32.60
2023-01-02T23:16:28.483Z,32.83
2023-01-02T23:19:17.159Z,31.30
2023-01-02T23:21:49.399Z,31.73
2023-01-02T23:24:22.223Z,30.00
2023-01-02T23:26:54.592Z,32.88
2023-01-02T23:29:24.946Z,32.70
2023-01-02T23:31:54.343Z,32.08
2023-01-02T23:34:26.671Z,30.92
2023-01-02T23:36:57.860Z,30.55
2023-01-02T23:39:29.480Z,31.52
2023-01-02T23:41:58.867Z,33.17
2023-01-02T23:44:28.009Z,36.88
2023-01-02T23:46:57.337Z,42.75
2023-01-02T23:49:26.648Z,32.58
2023-01-02T23:51:55.432Z,33.10
2023-01-02T23:54:24.288Z,37.83
2023-01-02T23:56:53.608Z,36.15
2023-01-02T23:59:24.976Z,38.83
